Vestborg — E5U2070 — position and weather

sailwx.info

Track history (hours):
 
Tides and Currents Weather Stations Pressure Air Temp Water Temp Dewpoint Dewpoint Depression Visibility Wind Speed Wind Dir Waves Ship Positions

Vestborg

Last reported at 2015-Jul-24 10:33 UTC. Time now 2015-Jul-28 03:32 UTC.
Position N 69°40' E 018°59'.

Length 66 m; draft 4.6 m.

Type: Cargo ship. MMSI: 518120000.

Date/timePositionNaut miles runAvg speedWind from/ knotsBaromVisibWave heightAir tempDewpointWater temp
2015-Jul-24 10:33N 69°40' E 018°59'1 0.6
2015-Jul-24 09:34N 69°39' E 018°58'0 0.0
2015-Jul-24 08:33N 69°39' E 018°58'0 0.0
2015-Jul-24 07:33N 69°39' E 018°58'0 0.0
2015-Jul-24 06:31N 69°39' E 018°58'0 0.0
2015-Jul-24 05:33N 69°39' E 018°58'4 3.8
2015-Jul-24 04:33N 69°36' E 018°52'  
2015-Jul-19 14:33N 68°22' E 016°09'  
2015-Jul-16 22:07N 67°40' E 014°31'5 8.6
2015-Jul-16 21:33N 67°36' E 014°31'9 8.8
2015-Jul-16 20:33N 67°27' E 014°28'9 9.2
2015-Jul-16 19:33N 67°19' E 014°17'9 9.0
2015-Jul-16 18:33N 67°11' E 014°05'9 9.1
2015-Jul-16 17:33N 67°03' E 013°52'9 9.0
2015-Jul-16 16:33N 66°58' E 013°33'8 8.4
2015-Jul-16 15:33N 66°51' E 013°20'7 0.4
2015-Jul-15 21:04N 66°45' E 013°14'5 8.9
2015-Jul-15 20:32N 66°50' E 013°16'9 8.5
2015-Jul-15 19:29N 66°57' E 013°29'8 8.7
2015-Jul-15 18:33N 67°02' E 013°45'9 9.1
2015-Jul-15 17:33N 67°08' E 014°01'9 9.3
2015-Jul-15 16:33N 67°16' E 014°14'9 9.3
2015-Jul-15 15:33N 67°24' E 014°27'9 9.3
2015-Jul-15 14:33N 67°33' E 014°31'10 9.4
2015-Jul-15 13:32N 67°43' E 014°31'146 8.1
2015-Jul-14 19:30N 69°34' E 018°49'7 7.1
2015-Jul-14 18:33N 69°40' E 018°59'0 0.0
2015-Jul-14 17:14N 69°40' E 018°59'0 0.0
2015-Jul-14 16:32N 69°40' E 018°59'0 0.0
2015-Jul-14 15:32N 69°40' E 018°59'0 0.0
2015-Jul-14 14:29N 69°40' E 018°59'0 0.0
2015-Jul-14 13:26N 69°40' E 018°59'0 0.0
2015-Jul-14 12:32N 69°40' E 018°59'  
Track history (hours):
 
Tides and Currents Weather Stations Pressure Air Temp Water Temp Dewpoint Dewpoint Depression Visibility Wind Speed Wind Dir Waves Ship Positions

Vestborg

Last reported at 2015-Jul-24 10:33 UTC. Time now 2015-Jul-28 03:32 UTC.
Position N 69°40' E 018°59'.

Length 66 m; draft 4.6 m.

Type: Cargo ship. MMSI: 518120000.

Date/timePositionNaut miles runAvg speedWind from/ knotsBaromVisibWave heightAir tempDewpointWater temp
2015-Jul-24 10:33N 69°40' E 018°59'1 0.6
2015-Jul-24 09:34N 69°39' E 018°58'0 0.0
2015-Jul-24 08:33N 69°39' E 018°58'0 0.0
2015-Jul-24 07:33N 69°39' E 018°58'0 0.0
2015-Jul-24 06:31N 69°39' E 018°58'0 0.0
2015-Jul-24 05:33N 69°39' E 018°58'4 3.8
2015-Jul-24 04:33N 69°36' E 018°52'  
2015-Jul-19 14:33N 68°22' E 016°09'  
2015-Jul-16 22:07N 67°40' E 014°31'5 8.6
2015-Jul-16 21:33N 67°36' E 014°31'9 8.8
2015-Jul-16 20:33N 67°27' E 014°28'9 9.2
2015-Jul-16 19:33N 67°19' E 014°17'9 9.0
2015-Jul-16 18:33N 67°11' E 014°05'9 9.1
2015-Jul-16 17:33N 67°03' E 013°52'9 9.0
2015-Jul-16 16:33N 66°58' E 013°33'8 8.4
2015-Jul-16 15:33N 66°51' E 013°20'7 0.4
2015-Jul-15 21:04N 66°45' E 013°14'5 8.9
2015-Jul-15 20:32N 66°50' E 013°16'9 8.5
2015-Jul-15 19:29N 66°57' E 013°29'8 8.7
2015-Jul-15 18:33N 67°02' E 013°45'9 9.1
2015-Jul-15 17:33N 67°08' E 014°01'9 9.3
2015-Jul-15 16:33N 67°16' E 014°14'9 9.3
2015-Jul-15 15:33N 67°24' E 014°27'9 9.3
2015-Jul-15 14:33N 67°33' E 014°31'10 9.4
2015-Jul-15 13:32N 67°43' E 014°31'146 8.1
2015-Jul-14 19:30N 69°34' E 018°49'7 7.1
2015-Jul-14 18:33N 69°40' E 018°59'0 0.0
2015-Jul-14 17:14N 69°40' E 018°59'0 0.0
2015-Jul-14 16:32N 69°40' E 018°59'0 0.0
2015-Jul-14 15:32N 69°40' E 018°59'0 0.0
2015-Jul-14 14:29N 69°40' E 018°59'0 0.0
2015-Jul-14 13:26N 69°40' E 018°59'0 0.0
2015-Jul-14 12:32N 69°40' E 018°59'  

Dump ship's entire track history